Time;durP1;ratioP1;P1;durP2;ratioP2;P2;SDS_P1;SDS_P2;PMS_P1;PMS_P2;Temp;Humidity;BMP_temperature;BMP_pressure;BME280_temperature;BME280_humidity;BME280_pressure;Samples;Min_cycle;Max_cycle;Signal;HPM_P1;HPM_P2
2024/01/07 00:02:21;;;;;;;2.30;2.10;;;;;;;14.26;52.47;97400.80;105676;1257;72535;-40
2024/01/07 00:04:48;;;;;;;2.30;2.10;;;;;;;14.26;52.40;97404.47;105672;1256;61221;-40
2024/01/07 00:07:14;;;;;;;2.80;2.10;;;;;;;14.26;52.32;97405.87;105660;1257;61310;-41
2024/01/07 00:09:41;;;;;;;2.70;2.30;;;;;;;14.26;52.37;97409.29;105663;1251;74577;-40
2024/01/07 00:12:08;;;;;;;2.20;2.00;;;;;;;14.26;52.41;97412.20;105678;1256;65350;-40
2024/01/07 00:14:35;;;;;;;2.30;1.80;;;;;;;14.27;52.45;97413.92;105792;1257;72593;-39
2024/01/07 00:17:01;;;;;;;3.20;2.00;;;;;;;14.27;52.43;97414.55;105955;1255;61347;-40
2024/01/07 00:19:31;;;;;;;2.70;2.20;;;;;;;14.27;52.32;97416.55;105972;1251;61313;-40
2024/01/07 00:21:58;;;;;;;2.40;2.00;;;;;;;14.27;52.38;97420.95;106047;1251;74488;-39
2024/01/07 00:24:25;;;;;;;2.60;2.00;;;;;;;14.28;52.34;97422.34;105892;1258;65895;-40
2024/01/07 00:26:52;;;;;;;1.80;1.70;;;;;;;14.28;52.37;97425.73;106074;1253;72565;-39
2024/01/07 00:29:19;;;;;;;2.50;2.10;;;;;;;14.28;52.36;97431.27;105740;1257;61226;-40
2024/01/07 00:31:45;;;;;;;3.50;1.90;;;;;;;14.28;52.36;97433.91;106174;1251;61326;-39
2024/01/07 00:34:12;;;;;;;1.90;1.70;;;;;;;14.28;52.39;97435.58;105666;1257;74424;-41
2024/01/07 00:36:39;;;;;;;2.50;1.90;;;;;;;14.28;52.30;97434.23;106219;1255;64833;-40
2024/01/07 00:39:05;;;;;;;2.30;2.10;;;;;;;14.29;52.33;97434.31;105924;1251;72802;-40
2024/01/07 00:41:32;;;;;;;2.20;2.00;;;;;;;14.29;52.36;97438.41;105855;1257;61227;-38
2024/01/07 00:43:59;;;;;;;1.80;1.70;;;;;;;14.29;52.29;97438.19;105733;1251;61326;-40
2024/01/07 00:46:25;;;;;;;2.10;1.90;;;;;;;14.30;52.30;97439.36;105889;1254;61266;-39
2024/01/07 00:48:52;;;;;;;2.40;2.00;;;;;;;14.30;52.32;97436.45;105929;1256;65031;-39
2024/01/07 00:51:18;;;;;;;2.10;1.90;;;;;;;14.30;52.31;97434.45;105718;1252;72373;-40
2024/01/07 00:53:45;;;;;;;2.50;2.10;;;;;;;14.30;52.45;97433.77;105741;1257;61235;-39
2024/01/07 00:56:12;;;;;;;2.10;1.90;;;;;;;14.30;52.28;97434.70;105646;1251;61279;-39
2024/01/07 00:58:38;;;;;;;2.20;2.00;;;;;;;14.30;52.38;97432.08;105690;1257;74617;-40
2024/01/07 01:01:05;;;;;;;2.20;2.00;;;;;;;14.30;52.29;97428.23;105851;1257;66254;-41
2024/01/07 01:03:32;;;;;;;1.90;1.80;;;;;;;14.31;52.33;97432.36;105604;1257;70796;-40
2024/01/07 01:05:59;;;;;;;2.30;1.90;;;;;;;14.31;52.32;97434.73;105485;1257;61558;-39
2024/01/07 01:08:26;;;;;;;2.50;2.00;;;;;;;14.31;52.36;97436.20;105568;1251;61310;-40
2024/01/07 01:11:11;;;;;;;2.00;1.80;;;;;;;14.31;52.26;97444.45;105579;1255;75979;-40
2024/01/07 01:13:38;;;;;;;2.30;1.80;;;;;;;14.32;52.37;97445.05;105865;1255;65933;-40
2024/01/07 01:16:05;;;;;;;1.90;1.70;;;;;;;14.32;52.39;97444.45;105791;1251;150646;-40
2024/01/07 01:18:32;;;;;;;1.80;1.70;;;;;;;14.32;52.26;97443.59;105681;1257;61225;-40
2024/01/07 01:20:58;;;;;;;3.10;1.90;;;;;;;14.32;52.29;97444.83;105783;1257;61808;-40
2024/01/07 01:23:25;;;;;;;3.40;1.90;;;;;;;14.32;52.36;97444.38;105725;1251;74423;-40
2024/01/07 01:25:51;;;;;;;2.10;1.90;;;;;;;14.32;52.26;97444.23;106000;1257;66072;-39
2024/01/07 01:28:18;;;;;;;2.80;2.00;;;;;;;14.32;52.35;97441.69;105936;1251;72577;-39
2024/01/07 01:30:45;;;;;;;2.20;2.00;;;;;;;14.32;52.28;97440.55;105997;1257;61221;-40
2024/01/07 01:33:12;;;;;;;2.40;2.00;;;;;;;14.33;52.17;97434.95;105904;1251;61299;-40
2024/01/07 01:35:38;;;;;;;2.00;1.80;;;;;;;14.33;52.33;97437.64;105765;1253;73362;-41
2024/01/07 01:38:05;;;;;;;1.80;1.60;;;;;;;14.33;52.22;97432.26;105644;1255;66086;-39
2024/01/07 01:40:32;;;;;;;2.10;1.90;;;;;;;14.32;52.30;97433.02;105790;1251;72367;-39
2024/01/07 01:42:58;;;;;;;2.30;1.90;;;;;;;14.33;52.35;97434.34;105670;1255;61225;-41
2024/01/07 01:45:25;;;;;;;2.40;1.90;;;;;;;14.32;52.26;97432.95;105646;1256;61946;-39
2024/01/07 01:47:52;;;;;;;2.20;2.00;;;;;;;14.33;52.31;97437.35;105573;1257;74324;-40
2024/01/07 01:50:18;;;;;;;2.50;2.30;;;;;;;14.33;52.30;97438.91;105630;1256;65450;-40
2024/01/07 01:52:45;;;;;;;2.60;1.90;;;;;;;14.33;52.27;97438.97;105479;1258;72357;-41
2024/01/07 01:55:12;;;;;;;2.80;2.10;;;;;;;14.33;52.25;97441.83;105557;1256;61232;-41
2024/01/07 01:57:38;;;;;;;2.10;1.80;;;;;;;14.33;52.08;97441.61;105568;1251;61592;-40
2024/01/07 02:00:06;;;;;;;2.00;1.80;;;;;;;14.34;52.26;97439.38;105398;1259;73473;-40
2024/01/07 02:02:35;;;;;;;2.70;1.80;;;;;;;14.33;52.18;97442.30;105763;1257;65038;-40
2024/01/07 02:05:03;;;;;;;2.30;2.00;;;;;;;14.34;52.26;97442.33;105615;1254;72656;-40
2024/01/07 02:07:31;;;;;;;2.70;2.00;;;;;;;14.34;52.34;97440.56;105894;1256;61222;-40
2024/01/07 02:09:57;;;;;;;2.20;1.70;;;;;;;14.34;52.28;97441.17;105761;1251;61270;-40
2024/01/07 02:12:24;;;;;;;3.70;2.00;;;;;;;14.34;52.28;97440.33;105690;1251;74607;-40
2024/01/07 02:14:51;;;;;;;2.00;1.80;;;;;;;14.35;52.14;97438.42;105874;1255;63974;-40
2024/01/07 02:17:19;;;;;;;2.00;1.80;;;;;;;14.35;52.27;97435.04;105564;1251;72443;-40
2024/01/07 02:19:45;;;;;;;2.20;1.70;;;;;;;14.35;52.27;97434.96;105699;1256;61304;-39
2024/01/07 02:22:12;;;;;;;2.00;1.80;;;;;;;14.35;52.27;97431.04;105735;1251;61387;-40
2024/01/07 02:24:39;;;;;;;1.80;1.60;;;;;;;14.35;52.23;97432.20;105797;1256;73558;-41
2024/01/07 02:27:06;;;;;;;2.70;1.80;;;;;;;14.35;52.28;97432.20;105909;1251;66434;-40
2024/01/07 02:29:32;;;;;;;2.00;1.80;;;;;;;14.35;52.30;97430.21;105913;1256;72561;-40
2024/01/07 02:31:59;;;;;;;1.90;1.70;;;;;;;14.36;52.25;97432.92;105872;1256;61347;-40
2024/01/07 02:34:25;;;;;;;2.00;1.80;;;;;;;14.36;52.16;97424.91;105949;1256;61147;-41
2024/01/07 02:36:52;;;;;;;2.40;1.90;;;;;;;14.36;52.33;97430.17;105718;1256;61119;-41
2024/01/07 02:39:18;;;;;;;1.80;1.70;;;;;;;14.36;52.29;97425.61;105722;1257;66173;-41
2024/01/07 02:41:45;;;;;;;3.20;2.00;;;;;;;14.36;52.17;97424.15;106228;1255;73198;-41
2024/01/07 02:44:11;;;;;;;2.10;1.90;;;;;;;14.36;52.24;97423.23;105904;1256;61347;-40
2024/01/07 02:46:39;;;;;;;1.70;1.60;;;;;;;14.36;52.19;97426.08;105840;1251;61214;-41
2024/01/07 02:49:06;;;;;;;2.20;2.00;;;;;;;14.36;52.20;97420.86;105870;1257;74577;-39
2024/01/07 02:51:33;;;;;;;2.40;1.80;;;;;;;14.36;52.22;97419.63;105777;1256;66106;-39
2024/01/07 02:54:00;;;;;;;2.00;1.80;;;;;;;14.36;52.24;97415.32;105596;1252;72586;-39
2024/01/07 02:56:26;;;;;;;1.70;1.50;;;;;;;14.36;52.14;97415.08;105617;1257;61230;-39
2024/01/07 02:58:53;;;;;;;1.60;1.50;;;;;;;14.36;52.06;97417.31;105759;1251;61259;-41
2024/01/07 03:01:22;;;;;;;2.50;2.00;;;;;;;14.36;52.24;97419.23;105610;1256;74555;-40
2024/01/07 03:03:49;;;;;;;2.50;1.90;;;;;;;14.37;52.21;97416.47;105843;1256;66091;-41
2024/01/07 03:06:16;;;;;;;1.90;1.80;;;;;;;14.37;52.19;97420.11;105865;1254;72345;-40
2024/01/07 03:08:43;;;;;;;2.70;1.80;;;;;;;14.37;52.18;97420.48;105916;1257;61247;-41
2024/01/07 03:11:09;;;;;;;2.10;1.90;;;;;;;14.37;52.13;97424.73;105707;1251;61282;-40
2024/01/07 03:13:36;;;;;;;2.00;1.80;;;;;;;14.37;52.20;97418.94;105933;1253;74264;-41
2024/01/07 03:16:03;;;;;;;2.10;1.90;;;;;;;14.37;52.22;97421.02;105779;1256;66112;-40
2024/01/07 03:18:30;;;;;;;2.50;1.80;;;;;;;14.37;52.19;97419.95;105740;1255;72561;-39
2024/01/07 03:20:57;;;;;;;2.10;1.90;;;;;;;14.37;52.09;97419.19;105901;1257;61234;-39
2024/01/07 03:23:24;;;;;;;1.90;1.70;;;;;;;14.37;52.07;97420.05;105997;1251;61343;-39
2024/01/07 03:25:50;;;;;;;2.00;1.70;;;;;;;14.37;52.09;97424.95;105802;1257;74572;-40
2024/01/07 03:28:17;;;;;;;2.10;1.90;;;;;;;14.38;52.13;97427.21;105944;1255;65912;-40
2024/01/07 03:30:44;;;;;;;2.60;2.00;;;;;;;14.37;52.15;97425.81;105933;1251;72690;-39
2024/01/07 03:33:11;;;;;;;1.80;1.70;;;;;;;14.37;52.15;97425.50;105794;1257;61461;-40
2024/01/07 03:35:38;;;;;;;2.10;1.90;;;;;;;14.38;52.17;97424.36;105692;1256;61339;-39
2024/01/07 03:38:04;;;;;;;2.00;1.80;;;;;;;14.38;52.15;97424.98;105949;1251;61333;-39
2024/01/07 03:40:31;;;;;;;2.30;1.70;;;;;;;14.38;52.08;97424.13;105632;1257;65918;-41
2024/01/07 03:42:58;;;;;;;2.80;1.70;;;;;;;14.38;52.13;97423.54;105648;1251;72471;-40
2024/01/07 03:45:24;;;;;;;2.00;1.80;;;;;;;14.38;52.18;97425.76;105627;1256;61213;-40
2024/01/07 03:47:51;;;;;;;1.70;1.60;;;;;;;14.38;52.20;97425.38;105827;1255;61747;-41
2024/01/07 03:50:18;;;;;;;2.60;1.90;;;;;;;14.38;52.08;97431.17;105727;1256;74539;-40
2024/01/07 03:52:45;;;;;;;2.00;1.70;;;;;;;14.38;52.11;97433.55;105856;1256;64890;-40
2024/01/07 03:55:11;;;;;;;1.70;1.60;;;;;;;14.38;52.04;97428.00;105848;1251;72764;-40
2024/01/07 03:57:38;;;;;;;2.00;1.80;;;;;;;14.38;52.07;97429.30;105898;1256;61152;-39
2024/01/07 04:00:05;;;;;;;1.80;1.50;;;;;;;14.38;52.10;97430.31;105805;1251;61307;-40
2024/01/07 04:02:32;;;;;;;2.60;2.00;;;;;;;14.38;52.05;97428.25;105957;1256;74589;-40
2024/01/07 04:04:58;;;;;;;1.80;1.70;;;;;;;14.39;52.18;97427.86;105823;1255;61284;-39
2024/01/07 04:07:25;;;;;;;1.90;1.70;;;;;;;14.39;52.10;97426.41;105813;1256;72382;-39
2024/01/07 04:09:51;;;;;;;2.40;1.90;;;;;;;14.38;52.11;97425.40;105831;1253;61289;-40
2024/01/07 04:12:18;;;;;;;2.00;1.60;;;;;;;14.39;52.03;97429.95;105773;1256;61104;-40
2024/01/07 04:14:45;;;;;;;2.40;1.90;;;;;;;14.39;52.10;97430.56;105713;1254;61168;-40
2024/01/07 04:17:11;;;;;;;1.60;1.50;;;;;;;14.39;52.14;97430.27;105952;1255;61292;-40
2024/01/07 04:19:41;;;;;;;1.90;1.70;;;;;;;14.38;52.10;97433.25;105654;1251;61217;-40
2024/01/07 04:22:07;;;;;;;3.00;1.60;;;;;;;14.39;52.08;97437.27;105623;1256;61225;-40
2024/01/07 04:24:34;;;;;;;1.90;1.60;;;;;;;14.39;52.12;97439.36;105729;1251;61380;-39
2024/01/07 04:27:01;;;;;;;2.00;1.60;;;;;;;14.39;52.03;97441.59;105790;1256;74486;-40
2024/01/07 04:29:27;;;;;;;2.80;1.70;;;;;;;14.39;52.13;97438.02;105779;1252;65469;-39
2024/01/07 04:31:54;;;;;;;2.30;1.90;;;;;;;14.39;52.08;97439.27;105645;1251;72442;-39
2024/01/07 04:34:21;;;;;;;2.00;1.80;;;;;;;14.39;52.10;97436.11;105777;1257;61260;-40
2024/01/07 04:36:47;;;;;;;1.70;1.60;;;;;;;14.39;52.03;97437.43;105702;1251;61221;-39
2024/01/07 04:39:14;;;;;;;1.90;1.60;;;;;;;14.40;52.10;97437.38;106007;1256;74356;-40
2024/01/07 04:41:41;;;;;;;1.90;1.60;;;;;;;14.39;51.98;97436.80;105801;1255;65570;-40
2024/01/07 04:44:09;;;;;;;2.00;1.80;;;;;;;14.40;52.02;97441.67;105749;1251;72537;-40
2024/01/07 04:46:39;;;;;;;2.10;1.90;;;;;;;14.39;52.09;97440.66;105530;1254;61213;-40
2024/01/07 04:49:06;;;;;;;1.80;1.50;;;;;;;14.39;52.06;97444.60;105965;1251;61233;-40
2024/01/07 04:51:33;;;;;;;2.00;1.70;;;;;;;14.39;52.01;97446.91;105735;1251;74847;-40
2024/01/07 04:54:00;;;;;;;1.60;1.50;;;;;;;14.39;52.04;97450.73;105988;1251;66042;-40
2024/01/07 04:56:26;;;;;;;2.10;1.80;;;;;;;14.39;52.13;97450.91;105619;1251;72489;-41
2024/01/07 04:58:53;;;;;;;2.00;1.80;;;;;;;14.39;51.98;97452.52;105647;1251;61167;-42
2024/01/07 05:01:19;;;;;;;1.90;1.70;;;;;;;14.39;52.04;97454.98;105583;1251;61227;-40
2024/01/07 05:03:46;;;;;;;1.60;1.50;;;;;;;14.39;52.06;97450.14;105852;1255;74651;-40
2024/01/07 05:06:13;;;;;;;1.50;1.40;;;;;;;14.39;52.02;97457.53;105651;1256;66168;-40
2024/01/07 05:08:40;;;;;;;1.50;1.40;;;;;;;14.40;52.17;97459.94;105674;1253;72882;-40
2024/01/07 05:11:07;;;;;;;2.30;1.70;;;;;;;14.40;52.08;97460.48;105773;1257;61166;-41
2024/01/07 05:13:35;;;;;;;1.80;1.70;;;;;;;14.40;51.86;97464.86;105724;1251;61214;-40
2024/01/07 05:16:02;;;;;;;1.50;1.40;;;;;;;14.40;52.11;97461.39;105735;1251;74565;-40
2024/01/07 05:18:29;;;;;;;1.80;1.70;;;;;;;14.40;51.99;97462.95;105791;1256;65757;-41
2024/01/07 05:20:56;;;;;;;1.70;1.60;;;;;;;14.40;52.05;97467.58;105605;1256;72304;-40
2024/01/07 05:23:22;;;;;;;2.00;1.80;;;;;;;14.40;51.98;97467.95;105666;1256;63052;-40
2024/01/07 05:25:49;;;;;;;2.30;1.60;;;;;;;14.41;52.11;97468.42;105634;1257;61241;-40
2024/01/07 05:28:19;;;;;;;1.70;1.60;;;;;;;14.41;51.98;97468.44;105669;1251;74299;-40
2024/01/07 05:30:46;;;;;;;2.10;1.80;;;;;;;14.41;51.95;97469.06;105567;1256;65789;-40
2024/01/07 05:33:13;;;;;;;1.60;1.50;;;;;;;14.41;51.92;97469.34;105921;1251;72598;-40
2024/01/07 05:35:40;;;;;;;1.70;1.50;;;;;;;14.41;51.88;97470.75;105692;1256;61237;-40
2024/01/07 05:38:06;;;;;;;2.20;1.80;;;;;;;14.41;52.01;97474.36;105766;1251;61217;-40
2024/01/07 05:40:33;;;;;;;1.80;1.50;;;;;;;14.41;52.04;97477.27;106017;1253;74621;-40
2024/01/07 05:43:00;;;;;;;1.90;1.70;;;;;;;14.41;52.00;97478.61;105911;1256;66306;-40
2024/01/07 05:45:26;;;;;;;1.60;1.40;;;;;;;14.41;51.96;97479.15;105763;1251;72505;-41
2024/01/07 05:47:53;;;;;;;2.50;1.90;;;;;;;14.41;52.01;97481.90;105701;1256;61292;-40
2024/01/07 05:50:20;;;;;;;1.90;1.50;;;;;;;14.40;52.01;97480.95;105632;1251;61288;-40
2024/01/07 05:52:47;;;;;;;1.90;1.70;;;;;;;14.40;51.94;97488.88;105971;1256;74406;-40
2024/01/07 05:55:14;;;;;;;2.00;1.80;;;;;;;14.41;51.95;97491.45;105863;1254;66013;-40
2024/01/07 05:57:40;;;;;;;3.10;1.60;;;;;;;14.40;51.97;97485.48;105823;1251;72351;-40
2024/01/07 06:00:08;;;;;;;1.80;1.50;;;;;;;14.40;51.93;97483.17;105697;1256;61305;-40
2024/01/07 06:02:39;;;;;;;1.70;1.60;;;;;;;14.39;51.83;97489.48;105972;1256;61179;-40
2024/01/07 06:05:06;;;;;;;2.10;1.90;;;;;;;14.39;51.88;97491.31;105817;1253;73571;-40
2024/01/07 06:07:33;;;;;;;1.50;1.40;;;;;;;14.39;51.87;97494.70;105553;1256;64953;-40
2024/01/07 06:10:00;;;;;;;1.80;1.60;;;;;;;14.39;51.89;97498.61;105531;1254;72568;-40
2024/01/07 06:12:26;;;;;;;1.70;1.60;;;;;;;14.39;51.96;97504.91;105728;1254;61332;-40
2024/01/07 06:14:53;;;;;;;2.00;1.60;;;;;;;14.39;51.93;97506.69;105932;1252;61219;-40
2024/01/07 06:17:20;;;;;;;1.60;1.50;;;;;;;14.38;51.91;97507.84;105812;1251;73652;-41
2024/01/07 06:19:46;;;;;;;1.50;1.30;;;;;;;14.39;51.81;97509.23;105581;1256;65988;-41
2024/01/07 06:22:13;;;;;;;2.10;1.60;;;;;;;14.38;51.92;97511.85;105660;1251;72654;-40
2024/01/07 06:24:40;;;;;;;2.50;1.80;;;;;;;14.38;51.97;97509.91;105623;1255;61216;-40
2024/01/07 06:27:06;;;;;;;1.30;1.20;;;;;;;14.38;51.89;97512.98;105778;1253;61343;-39
2024/01/07 06:29:33;;;;;;;1.70;1.60;;;;;;;14.38;51.88;97514.05;105706;1254;74401;-39
2024/01/07 06:32:00;;;;;;;1.60;1.50;;;;;;;14.38;51.95;97513.90;105929;1256;66021;-40
2024/01/07 06:34:26;;;;;;;1.70;1.50;;;;;;;14.38;52.01;97516.05;105764;1251;71440;-39
2024/01/07 06:36:53;;;;;;;2.10;1.80;;;;;;;14.38;51.89;97518.42;106016;1255;61205;-40
2024/01/07 06:39:20;;;;;;;2.70;1.60;;;;;;;14.38;51.77;97523.43;105917;1251;61333;-41
2024/01/07 06:41:46;;;;;;;2.40;1.70;;;;;;;14.37;51.95;97527.81;105892;1253;74495;-41
2024/01/07 06:44:13;;;;;;;1.50;1.40;;;;;;;14.37;51.83;97528.25;105684;1255;65050;-40
2024/01/07 06:46:40;;;;;;;1.60;1.50;;;;;;;14.37;51.83;97531.42;106318;1251;72370;-40
2024/01/07 06:49:08;;;;;;;1.90;1.70;;;;;;;14.37;51.83;97531.86;105775;1256;61271;-40
2024/01/07 06:51:35;;;;;;;1.90;1.50;;;;;;;14.37;51.89;97530.41;105807;1251;61246;-39
2024/01/07 06:54:02;;;;;;;1.50;1.40;;;;;;;14.38;51.93;97535.36;105934;1251;74560;-40
2024/01/07 06:56:29;;;;;;;1.60;1.50;;;;;;;14.37;51.90;97532.18;105739;1253;64871;-41
2024/01/07 06:58:55;;;;;;;3.40;1.80;;;;;;;14.37;51.86;97531.80;105862;1251;72290;-39
2024/01/07 07:01:25;;;;;;;1.90;1.60;;;;;;;14.37;51.93;97536.71;105706;1256;61221;-40
2024/01/07 07:03:52;;;;;;;1.90;1.70;;;;;;;14.37;51.89;97530.40;105700;1251;61310;-40
2024/01/07 07:06:19;;;;;;;1.60;1.50;;;;;;;14.37;51.90;97534.73;105785;1253;74530;-40
2024/01/07 07:08:45;;;;;;;1.60;1.50;;;;;;;14.37;51.90;97532.73;105807;1255;66103;-39
2024/01/07 07:11:12;;;;;;;2.60;1.60;;;;;;;14.37;51.93;97538.42;105803;1251;72367;-40
2024/01/07 07:13:39;;;;;;;1.60;1.50;;;;;;;14.38;51.82;97531.20;105954;1256;61272;-39
2024/01/07 07:16:06;;;;;;;2.50;1.70;;;;;;;14.38;51.97;97530.60;105778;1251;61240;-40
2024/01/07 07:18:33;;;;;;;1.60;1.50;;;;;;;14.37;51.86;97535.52;105677;1251;74396;-41
2024/01/07 07:21:00;;;;;;;1.90;1.70;;;;;;;14.37;51.86;97531.64;105661;1256;65959;-40
2024/01/07 07:23:26;;;;;;;1.60;1.50;;;;;;;14.37;51.82;97531.96;105742;1256;72554;-41
2024/01/07 07:25:53;;;;;;;2.30;1.60;;;;;;;14.37;51.78;97534.17;105644;1255;61251;-40
2024/01/07 07:28:20;;;;;;;1.70;1.60;;;;;;;14.37;51.87;97534.88;105663;1251;61259;-40
2024/01/07 07:30:46;;;;;;;1.80;1.70;;;;;;;14.37;51.70;97537.80;105691;1256;74488;-40
2024/01/07 07:33:18;;;;;;;2.90;1.50;;;;;;;14.37;51.91;97540.17;105761;1251;65958;-40
2024/01/07 07:35:45;;;;;;;1.80;1.70;;;;;;;14.37;51.80;97538.40;105948;1251;72267;-39
2024/01/07 07:38:11;;;;;;;2.20;1.60;;;;;;;14.37;51.82;97537.86;105968;1256;61229;-39
2024/01/07 07:40:38;;;;;;;1.60;1.50;;;;;;;14.36;51.79;97538.63;105951;1251;61226;-41
2024/01/07 07:43:05;;;;;;;2.30;1.60;;;;;;;14.36;51.79;97542.85;105953;1254;74497;-39
2024/01/07 07:45:32;;;;;;;2.10;1.60;;;;;;;14.36;51.81;97545.55;105852;1255;65901;-39
2024/01/07 07:47:59;;;;;;;1.60;1.50;;;;;;;14.36;51.83;97546.78;105813;1251;72484;-41
2024/01/07 07:50:25;;;;;;;1.80;1.60;;;;;;;14.36;51.83;97551.69;105855;1255;61257;-39
2024/01/07 07:52:53;;;;;;;2.10;1.50;;;;;;;14.36;51.87;97557.23;105930;1251;61231;-38
2024/01/07 07:55:20;;;;;;;2.00;1.60;;;;;;;14.35;51.82;97559.14;105921;1251;74537;-40
2024/01/07 07:57:47;;;;;;;1.60;1.50;;;;;;;14.35;51.89;97555.72;106001;1256;66432;-40
2024/01/07 08:00:15;;;;;;;1.60;1.50;;;;;;;14.35;51.96;97562.49;106024;1251;72632;-41
2024/01/07 08:02:41;;;;;;;1.90;1.40;;;;;;;14.34;51.97;97560.25;105928;1255;61209;-41
2024/01/07 08:05:08;;;;;;;1.50;1.40;;;;;;;14.35;51.81;97564.98;105726;1256;61316;-39
2024/01/07 08:07:35;;;;;;;1.50;1.40;;;;;;;14.34;51.88;97562.95;105670;1253;75057;-40
2024/01/07 08:10:02;;;;;;;1.80;1.60;;;;;;;14.35;51.94;97566.65;105665;1254;65088;-40
2024/01/07 08:12:29;;;;;;;2.10;1.30;;;;;;;14.34;51.87;97564.95;105684;1251;72463;-39
2024/01/07 08:14:56;;;;;;;1.50;1.40;;;;;;;14.34;51.95;97573.64;105871;1256;61263;-40
2024/01/07 08:17:22;;;;;;;1.60;1.50;;;;;;;14.34;51.85;97577.18;105938;1253;61224;-40
2024/01/07 08:19:50;;;;;;;1.50;1.40;;;;;;;14.34;51.84;97580.26;105589;1256;74555;-40
2024/01/07 08:22:17;;;;;;;3.10;1.60;;;;;;;14.34;51.92;97582.33;105800;1256;65071;-41
2024/01/07 08:24:44;;;;;;;1.90;1.80;;;;;;;14.34;52.03;97586.10;105532;1253;72633;-41
2024/01/07 08:27:11;;;;;;;2.10;1.80;;;;;;;14.34;51.96;97580.17;105699;1256;61233;-40
2024/01/07 08:29:37;;;;;;;1.40;1.30;;;;;;;14.34;51.98;97584.33;105756;1253;61295;-40
2024/01/07 08:32:04;;;;;;;1.80;1.40;;;;;;;14.34;51.87;97584.95;105837;1253;74586;-39
2024/01/07 08:34:31;;;;;;;1.60;1.40;;;;;;;14.34;51.90;97592.11;105772;1256;65946;-40
2024/01/07 08:36:58;;;;;;;1.70;1.60;;;;;;;14.33;51.90;97593.16;105627;1253;72931;-41
2024/01/07 08:39:25;;;;;;;1.80;1.60;;;;;;;14.34;51.81;97597.10;105900;1256;61254;-41
2024/01/07 08:41:52;;;;;;;1.90;1.60;;;;;;;14.33;51.92;97602.39;105858;1252;61231;-41
2024/01/07 08:44:19;;;;;;;1.50;1.40;;;;;;;14.34;51.91;97606.03;105770;1253;74286;-41
2024/01/07 08:46:45;;;;;;;1.70;1.50;;;;;;;14.33;51.85;97605.45;106076;1251;66187;-41
2024/01/07 08:49:13;;;;;;;2.00;1.80;;;;;;;14.34;51.85;97604.80;105827;1253;72602;-40
2024/01/07 08:51:40;;;;;;;1.80;1.40;;;;;;;14.33;51.81;97603.77;105675;1256;61336;-41
2024/01/07 08:54:06;;;;;;;1.90;1.70;;;;;;;14.34;51.77;97605.18;105675;1252;61211;-40
2024/01/07 08:56:33;;;;;;;1.70;1.60;;;;;;;14.33;51.83;97606.15;105654;1254;74676;-40
2024/01/07 08:59:00;;;;;;;2.30;1.70;;;;;;;14.33;51.79;97599.69;105656;1256;65030;-41
2024/01/07 09:01:26;;;;;;;1.80;1.50;;;;;;;14.33;51.83;97602.00;105693;1253;72636;-40
2024/01/07 09:03:53;;;;;;;1.60;1.50;;;;;;;14.33;51.75;97603.62;105872;1256;61254;-41
2024/01/07 09:06:20;;;;;;;1.50;1.40;;;;;;;14.33;51.71;97600.14;105681;1253;61432;-39
2024/01/07 09:08:46;;;;;;;1.40;1.30;;;;;;;14.33;51.67;97601.31;105686;1253;74549;-40
2024/01/07 09:11:13;;;;;;;2.50;1.60;;;;;;;14.34;51.76;97602.33;105643;1252;66111;-41
2024/01/07 09:13:40;;;;;;;1.50;1.40;;;;;;;14.33;51.74;97605.84;105596;1253;72617;-40
2024/01/07 09:16:11;;;;;;;3.40;1.40;;;;;;;14.32;51.76;97603.96;105826;1256;61234;-40
2024/01/07 09:18:38;;;;;;;1.60;1.50;;;;;;;14.33;51.82;97605.14;105963;1253;61400;-40
2024/01/07 09:21:06;;;;;;;1.60;1.50;;;;;;;14.33;51.61;97600.29;105896;1253;74561;-39
2024/01/07 09:23:39;;;;;;;1.40;1.30;;;;;;;14.33;51.72;97600.29;105710;1256;65939;-40
2024/01/07 09:26:06;;;;;;;1.70;1.50;;;;;;;14.33;51.85;97599.38;105604;1254;72817;-41
2024/01/07 09:28:32;;;;;;;1.40;1.30;;;;;;;14.33;51.72;97599.75;105936;1256;61247;-40
2024/01/07 09:30:59;;;;;;;2.30;1.50;;;;;;;14.33;51.74;97590.27;105726;1253;61221;-40
2024/01/07 09:33:26;;;;;;;2.10;1.50;;;;;;;14.33;51.76;97589.89;105525;1256;74424;-40
2024/01/07 09:35:56;;;;;;;1.60;1.50;;;;;;;14.33;51.78;97586.45;105642;1256;64765;-40
2024/01/07 09:38:36;;;;;;;1.60;1.30;;;;;;;14.33;51.86;97583.85;105544;1253;72601;-40
2024/01/07 09:41:03;;;;;;;1.80;1.50;;;;;;;14.33;51.70;97586.23;105597;1256;61253;-40
2024/01/07 09:43:30;;;;;;;1.80;1.50;;;;;;;14.33;51.88;97587.73;105724;1253;61362;-40
2024/01/07 09:46:02;;;;;;;1.90;1.50;;;;;;;14.33;51.76;97585.05;105403;1253;74536;-40
2024/01/07 09:48:29;;;;;;;1.50;1.40;;;;;;;14.33;51.79;97584.98;105797;1256;65854;-40
2024/01/07 09:50:57;;;;;;;1.60;1.50;;;;;;;14.33;51.88;97581.96;105748;1253;72566;-41
2024/01/07 09:53:25;;;;;;;1.70;1.60;;;;;;;14.33;51.73;97579.66;105662;1256;61237;-41
2024/01/07 09:55:53;;;;;;;1.50;1.40;;;;;;;14.33;51.75;97581.81;105682;1253;61237;-41
2024/01/07 09:58:19;;;;;;;1.60;1.50;;;;;;;14.33;51.78;97574.98;105803;1256;74546;-41
2024/01/07 10:00:46;;;;;;;1.60;1.50;;;;;;;14.33;51.79;97568.40;105546;1257;66116;-41
2024/01/07 10:03:13;;;;;;;1.60;1.50;;;;;;;14.32;51.78;97566.94;105706;1253;72697;-39
2024/01/07 10:05:40;;;;;;;1.50;1.40;;;;;;;14.32;51.72;97557.15;105588;1256;61228;-40
2024/01/07 10:08:07;;;;;;;1.70;1.50;;;;;;;14.32;51.72;97561.77;105592;1253;61291;-41
2024/01/07 10:10:35;;;;;;;1.60;1.50;;;;;;;14.32;51.74;97555.16;105586;1256;75681;-40
2024/01/07 10:13:02;;;;;;;2.10;1.60;;;;;;;14.32;51.77;97555.37;105657;1255;66882;-40
2024/01/07 10:15:29;;;;;;;1.90;1.60;;;;;;;14.32;51.78;97548.53;105935;1253;72257;-40
2024/01/07 10:17:56;;;;;;;1.60;1.50;;;;;;;14.32;51.83;97541.37;105631;1256;61258;-40
2024/01/07 10:20:23;;;;;;;1.60;1.40;;;;;;;14.32;51.71;97542.83;105651;1253;61333;-40
2024/01/07 10:22:50;;;;;;;1.50;1.30;;;;;;;14.32;51.68;97539.81;105636;1253;75534;-41
2024/01/07 10:25:16;;;;;;;1.30;1.20;;;;;;;14.31;51.73;97533.96;105789;1256;66190;-40
2024/01/07 10:27:43;;;;;;;1.50;1.40;;;;;;;14.32;51.76;97533.13;105901;1253;73346;-40
2024/01/07 10:30:11;;;;;;;1.70;1.50;;;;;;;14.32;51.66;97534.05;105746;1256;61234;-41
2024/01/07 10:32:38;;;;;;;1.60;1.50;;;;;;;14.32;51.67;97531.59;105934;1253;61755;-40
2024/01/07 10:35:08;;;;;;;1.60;1.40;;;;;;;14.32;51.62;97534.27;105787;1253;74534;-40
2024/01/07 10:37:35;;;;;;;1.50;1.40;;;;;;;14.32;51.71;97531.73;105646;1259;65876;-39
2024/01/07 10:40:03;;;;;;;1.80;1.50;;;;;;;14.32;51.64;97534.28;105594;1253;72444;-40
2024/01/07 10:42:32;;;;;;;2.40;1.40;;;;;;;14.31;51.57;97528.41;105902;1253;61257;-40
2024/01/07 10:45:00;;;;;;;1.60;1.50;;;;;;;14.31;51.69;97526.80;105610;1252;61192;-40
2024/01/07 10:47:29;;;;;;;1.70;1.60;;;;;;;14.31;51.60;97527.09;105713;1253;75499;-40
2024/01/07 10:49:59;;;;;;;1.40;1.30;;;;;;;14.31;51.64;97525.95;105557;1253;65083;-40
2024/01/07 10:52:29;;;;;;;1.40;1.30;;;;;;;14.31;51.68;97523.18;105642;1253;72587;-40
2024/01/07 10:54:56;;;;;;;1.60;1.50;;;;;;;14.31;51.50;97523.64;105734;1256;61247;-40
2024/01/07 10:57:26;;;;;;;1.30;1.20;;;;;;;14.31;51.71;97523.02;105712;1253;61363;-40
2024/01/07 10:59:54;;;;;;;1.60;1.50;;;;;;;14.31;51.78;97522.79;105633;1254;74486;-40
2024/01/07 11:02:21;;;;;;;1.40;1.30;;;;;;;14.31;51.61;97523.09;105462;1259;64226;-39
2024/01/07 11:05:00;;;;;;;1.40;1.30;;;;;;;14.31;51.63;97519.70;105702;1253;72386;-40
2024/01/07 11:07:41;;;;;;;1.70;1.50;;;;;;;14.31;51.60;97524.11;105939;1256;61345;-40
2024/01/07 11:10:22;;;;;;;1.50;1.30;;;;;;;14.31;51.56;97516.69;105896;1256;61263;-40
2024/01/07 11:12:59;;;;;;;1.70;1.50;;;;;;;14.30;51.70;97518.60;105885;1256;77218;-40
2024/01/07 11:15:49;;;;;;;1.40;1.20;;;;;;;14.30;51.47;97520.05;105888;1256;65570;-40
2024/01/07 11:18:19;;;;;;;2.20;1.40;;;;;;;14.30;51.64;97515.59;105897;1253;71662;-40
2024/01/07 11:20:47;;;;;;;1.70;1.50;;;;;;;14.30;51.50;97517.26;105844;1256;61230;-40
2024/01/07 11:23:37;;;;;;;2.30;1.70;;;;;;;14.30;51.63;97516.77;105750;1252;61129;-40
2024/01/07 11:26:04;;;;;;;1.60;1.50;;;;;;;14.30;51.57;97513.65;105872;1253;74557;-40